Time;durP1;ratioP1;P1;durP2;ratioP2;P2;SDS_P1;SDS_P2;PMS_P1;PMS_P2;Temp;Humidity;BMP_temperature;BMP_pressure;BME280_temperature;BME280_humidity;BME280_pressure;Samples;Min_cycle;Max_cycle;Signal;HPM_P1;HPM_P2
2022/04/07 00:02:23;;;;;;;11.85;4.10;;;9.70;99.90;;;;;;6284721;22;20023;-94
2022/04/07 00:04:51;;;;;;;13.67;4.43;;;9.70;99.90;;;;;;6258304;22;20099;-95
2022/04/07 00:07:17;;;;;;;10.80;4.07;;;9.70;99.90;;;;;;6258298;22;20086;-94
2022/04/07 00:09:43;;;;;;;10.27;4.00;;;9.70;99.90;;;;;;6256250;22;20078;-95
2022/04/07 00:12:11;;;;;;;9.67;3.83;;;9.70;99.90;;;;;;6262022;22;20012;-92
2022/04/07 00:14:40;;;;;;;8.23;3.92;;;9.70;99.90;;;;;;6267207;22;20012;-95
2022/04/07 00:17:06;;;;;;;12.90;4.27;;;9.70;99.90;;;;;;6257718;23;20027;-93
2022/04/07 00:19:32;;;;;;;10.15;3.22;;;9.70;99.90;;;;;;6236735;23;20052;-89
2022/04/07 00:22:07;;;;;;;9.97;3.13;;;9.70;99.90;;;;;;6264989;23;19996;-93
2022/04/07 00:24:35;;;;;;;10.98;2.85;;;9.70;99.90;;;;;;6283705;22;20024;-90
2022/04/07 00:27:00;;;;;;;;;;;9.70;99.90;;;;;;6235299;23;20014;-92
2022/04/07 00:29:26;;;;;;;11.98;3.05;;;9.70;99.90;;;;;;6263859;23;19915;-96
2022/04/07 00:34:22;;;;;;;10.87;3.07;;;9.60;99.90;;;;;;6254867;22;20008;-92
2022/04/07 00:36:48;;;;;;;10.75;2.50;;;9.60;99.90;;;;;;6230886;23;20024;-93
2022/04/07 00:39:15;;;;;;;11.27;2.70;;;9.60;99.90;;;;;;6236185;23;20089;-92
2022/04/07 00:41:49;;;;;;;9.77;2.30;;;9.60;99.90;;;;;;6256331;23;20016;-90
2022/04/07 00:44:16;;;;;;;8.85;2.08;;;9.60;99.90;;;;;;6231690;23;20059;-93
2022/04/07 00:46:42;;;;;;;8.02;1.70;;;9.60;99.90;;;;;;6235146;23;20004;-94
2022/04/07 00:49:09;;;;;;;7.73;1.60;;;9.50;99.90;;;;;;6232806;23;20016;-95
2022/04/07 00:51:38;;;;;;;9.38;2.05;;;9.50;99.90;;;;;;6227260;23;20046;-96
2022/04/07 00:54:05;;;;;;;11.55;2.00;;;9.60;99.90;;;;;;6249109;23;20027;-93
2022/04/07 00:56:31;;;;;;;;;;;9.60;99.90;;;;;;6224396;23;20048;-92
2022/04/07 00:58:57;;;;;;;10.15;2.10;;;9.50;99.90;;;;;;6249639;23;20391;-94
2022/04/07 01:06:33;;;;;;;10.68;1.92;;;9.60;99.90;;;;;;6281228;22;20015;-95
2022/04/07 01:08:59;;;;;;;14.97;2.40;;;9.60;99.90;;;;;;6262585;22;20038;-96
2022/04/07 01:11:28;;;;;;;12.18;2.55;;;9.60;99.90;;;;;;6311931;22;20018;-93
2022/04/07 01:13:55;;;;;;;15.30;2.65;;;9.60;99.90;;;;;;6309607;22;20352;-92
2022/04/07 01:16:26;;;;;;;13.25;2.42;;;9.60;99.90;;;;;;6259332;22;20090;-95
2022/04/07 01:19:11;;;;;;;15.38;2.55;;;9.50;99.90;;;;;;6257191;22;20047;-94
2022/04/07 01:21:37;;;;;;;14.13;2.75;;;9.50;99.90;;;;;;6279578;22;20337;-94
2022/04/07 01:24:08;;;;;;;13.00;2.58;;;9.50;99.90;;;;;;6257348;22;20015;-95
2022/04/07 01:26:42;;;;;;;13.13;2.33;;;9.50;99.90;;;;;;6239823;23;20012;-96
2022/04/07 01:29:12;;;;;;;13.70;2.35;;;9.50;99.90;;;;;;6207314;23;20020;-95
2022/04/07 01:31:38;;;;;;;11.50;2.20;;;9.50;99.90;;;;;;6227674;23;20008;-95
2022/04/07 01:34:08;;;;;;;13.13;2.30;;;9.40;99.90;;;;;;6222494;23;20349;-96
2022/04/07 01:36:38;;;;;;;11.43;2.63;;;9.40;99.90;;;;;;6225443;23;20012;-96
2022/04/07 01:39:11;;;;;;;16.48;2.70;;;9.30;99.90;;;;;;6226918;23;20019;-94
2022/04/07 01:41:39;;;;;;;16.30;3.00;;;9.30;99.90;;;;;;6199237;23;20044;-95
2022/04/07 01:44:07;;;;;;;10.68;2.38;;;9.30;99.90;;;;;;6223146;23;20020;-95
2022/04/07 01:46:34;;;;;;;11.95;2.25;;;9.30;99.90;;;;;;6223289;23;20016;-95
2022/04/07 01:49:01;;;;;;;10.38;2.00;;;9.20;99.90;;;;;;6225080;23;20027;-95
2022/04/07 01:51:29;;;;;;;10.07;2.38;;;9.10;99.90;;;;;;6225435;23;20023;-95
2022/04/07 01:53:55;;;;;;;13.00;2.35;;;9.10;99.90;;;;;;6223294;23;20078;-96
2022/04/07 01:56:22;;;;;;;16.05;3.45;;;9.00;99.90;;;;;;6228047;23;20028;-96
2022/04/07 01:58:49;;;;;;;12.25;2.90;;;9.10;99.90;;;;;;6228074;23;20099;-93
2022/04/07 02:01:15;;;;;;;18.92;3.45;;;9.00;99.90;;;;;;6223552;23;20072;-93
2022/04/07 02:03:45;;;;;;;18.35;3.42;;;9.00;99.90;;;;;;6222943;23;20016;-93
2022/04/07 02:06:12;;;;;;;19.92;3.72;;;9.10;99.90;;;;;;6196267;23;20016;-92
2022/04/07 02:08:38;;;;;;;16.63;4.20;;;9.10;99.90;;;;;;6222573;23;20054;-93
2022/04/07 02:11:04;;;;;;;17.13;4.03;;;9.10;99.90;;;;;;6222387;23;20020;-95
2022/04/07 02:13:34;;;;;;;18.83;4.28;;;9.10;99.90;;;;;;6220625;23;20314;-94
2022/04/07 02:16:01;;;;;;;16.33;4.13;;;9.20;99.90;;;;;;6220465;23;20496;-92
2022/04/07 02:18:27;;;;;;;19.13;4.40;;;9.20;99.90;;;;;;6220829;23;20017;-96
2022/04/07 02:20:53;;;;;;;17.38;3.92;;;9.10;99.90;;;;;;6221246;23;20507;-92
2022/04/07 02:23:19;;;;;;;15.97;3.53;;;9.20;99.90;;;;;;6195815;23;20020;-95
2022/04/07 02:25:44;;;;;;;19.75;4.07;;;9.20;99.90;;;;;;6223471;23;20016;-95
2022/04/07 02:28:10;;;;;;;21.77;3.50;;;9.20;99.90;;;;;;6222568;23;20409;-94
2022/04/07 02:30:36;;;;;;;20.97;3.93;;;9.20;99.90;;;;;;6196832;23;20012;-93
2022/04/07 02:33:01;;;;;;;17.77;3.17;;;9.20;99.90;;;;;;6222195;23;20031;-91
2022/04/07 02:35:27;;;;;;;17.03;4.03;;;9.20;99.90;;;;;;6223214;23;20017;-96
2022/04/07 02:37:53;;;;;;;23.03;4.10;;;9.20;99.90;;;;;;6221067;23;20096;-94
2022/04/07 02:40:18;;;;;;;13.97;2.83;;;9.30;99.90;;;;;;6221148;23;20035;-94
2022/04/07 02:42:44;;;;;;;18.63;3.67;;;9.20;99.90;;;;;;6222213;23;20022;-95
2022/04/07 02:45:18;;;;;;;14.57;3.47;;;9.20;99.90;;;;;;6221547;23;20012;-95
2022/04/07 02:48:02;;;;;;;22.88;3.67;;;9.30;99.90;;;;;;6223854;23;20345;-95
2022/04/07 02:50:29;;;;;;;18.98;3.25;;;9.30;99.90;;;;;;6198211;23;20020;-94
2022/04/07 02:52:54;;;;;;;21.95;3.78;;;9.30;99.90;;;;;;6223687;23;20035;-93
2022/04/07 02:55:22;;;;;;;25.97;4.33;;;9.30;99.90;;;;;;6229345;23;20054;-96
2022/04/07 02:57:48;;;;;;;21.38;4.03;;;9.30;99.90;;;;;;6224241;23;20016;-94
2022/04/07 03:00:14;;;;;;;17.57;3.80;;;9.30;99.90;;;;;;6226870;23;20016;-92
2022/04/07 03:02:40;;;;;;;23.00;4.25;;;9.30;99.90;;;;;;6225280;23;20468;-95
2022/04/07 03:05:06;;;;;;;20.97;4.27;;;9.30;99.90;;;;;;6232161;23;20017;-96
2022/04/07 03:07:32;;;;;;;20.27;3.97;;;9.40;99.90;;;;;;6236010;23;20020;-94
2022/04/07 03:10:15;;;;;;;15.87;3.57;;;9.30;99.90;;;;;;6239020;23;20023;-89
2022/04/07 03:12:41;;;;;;;15.65;3.67;;;9.30;99.90;;;;;;6238301;23;20020;-96
2022/04/07 03:34:22;;;;;;;17.00;4.25;;;9.20;99.90;;;;;;6279278;22;20023;-92
2022/04/07 03:36:50;;;;;;;16.87;4.23;;;9.20;99.90;;;;;;6229581;22;20023;-96
2022/04/07 03:39:16;;;;;;;16.65;4.35;;;9.20;99.90;;;;;;6286418;22;20073;-95
2022/04/07 03:41:43;;;;;;;13.87;4.13;;;9.30;99.90;;;;;;6285701;22;20095;-94
2022/04/07 03:44:10;;;;;;;15.90;4.35;;;9.20;99.90;;;;;;6287503;22;20291;-89
2022/04/07 03:46:37;;;;;;;14.02;4.32;;;9.30;99.90;;;;;;6284361;22;20050;-92
2022/04/07 03:49:03;;;;;;;19.88;4.50;;;9.30;99.90;;;;;;6286864;22;20077;-94
2022/04/07 03:51:30;;;;;;;14.07;3.75;;;9.30;99.90;;;;;;6284866;22;20063;-93
2022/04/07 03:53:55;;;;;;;;;;;9.30;99.90;;;;;;6285752;22;20069;-91
2022/04/07 03:56:21;;;;;;;15.35;3.13;;;9.30;99.90;;;;;;6233551;22;19915;-95
2022/04/07 03:58:47;;;;;;;16.33;3.70;;;9.30;99.90;;;;;;6281184;22;20090;-94
2022/04/07 04:01:41;;;;;;;20.57;3.53;;;9.30;99.90;;;;;;6278485;22;20015;-90
2022/04/07 04:04:07;;;;;;;18.58;3.58;;;9.30;99.90;;;;;;6283205;22;20015;-90
2022/04/07 04:06:34;;;;;;;16.73;3.60;;;9.40;99.90;;;;;;6283448;22;20023;-96
2022/04/07 04:08:59;;;;;;;14.82;2.97;;;9.40;99.90;;;;;;6282951;22;20015;-92
2022/04/07 04:11:25;;;;;;;16.77;3.60;;;9.40;99.90;;;;;;6280608;22;20046;-93
2022/04/07 04:13:51;;;;;;;17.07;3.40;;;9.40;99.90;;;;;;6279113;22;20046;-93
2022/04/07 04:16:38;;;;;;;13.73;3.70;;;9.40;99.90;;;;;;6279836;22;20053;-95
2022/04/07 04:19:54;;;;;;;18.58;3.40;;;9.40;99.90;;;;;;6253705;22;20091;-92
2022/04/07 04:32:43;;;;;;;19.42;4.47;;;9.20;99.90;;;;;;6257697;22;20024;-90
2022/04/07 04:40:00;;;;;;;23.67;3.75;;;9.20;99.90;;;;;;6251778;23;20058;-95
2022/04/07 04:42:26;;;;;;;18.13;3.50;;;9.20;99.90;;;;;;6227109;23;20020;-96
2022/04/07 04:44:55;;;;;;;22.73;3.63;;;9.20;99.90;;;;;;6202315;23;20453;-96
2022/04/07 04:47:21;;;;;;;20.67;3.90;;;9.20;99.90;;;;;;6203226;23;20044;-96
2022/04/07 04:49:48;;;;;;;21.85;3.83;;;9.20;99.90;;;;;;6235375;23;20044;-91
2022/04/07 04:52:14;;;;;;;21.88;4.13;;;9.20;99.90;;;;;;6235953;23;20016;-91
2022/04/07 04:54:41;;;;;;;18.47;3.57;;;9.20;99.90;;;;;;6207438;23;20020;-91
2022/04/07 04:57:10;;;;;;;20.10;4.07;;;9.20;99.90;;;;;;6181695;23;20048;-89
2022/04/07 04:59:42;;;;;;;23.25;4.55;;;9.20;99.90;;;;;;6235858;23;20016;-94
2022/04/07 05:02:12;;;;;;;25.90;4.28;;;9.20;99.90;;;;;;6211055;23;20028;-92
2022/04/07 05:04:41;;;;;;;17.38;3.95;;;9.20;99.90;;;;;;6211630;23;20012;-95
2022/04/07 05:07:09;;;;;;;22.20;3.67;;;9.20;99.90;;;;;;6209441;23;20038;-94
2022/04/07 05:12:10;;;;;;;22.92;3.92;;;9.20;99.90;;;;;;6224867;22;20028;-94
2022/04/07 05:14:36;;;;;;;22.00;4.00;;;9.10;99.90;;;;;;6196703;23;20015;-92
2022/04/07 05:17:02;;;;;;;21.47;4.90;;;9.10;99.90;;;;;;6197229;23;20008;-95
2022/04/07 05:19:27;;;;;;;22.77;4.32;;;9.00;99.90;;;;;;6203705;23;20034;-91
2022/04/07 05:21:53;;;;;;;20.07;3.97;;;9.00;99.90;;;;;;6231547;23;20036;-89
2022/04/07 05:27:00;;;;;;;17.42;3.83;;;8.90;99.90;;;;;;6293945;22;20049;-91
2022/04/07 05:29:27;;;;;;;12.60;2.35;;;8.90;99.90;;;;;;6236897;22;20020;-95
2022/04/07 05:31:59;;;;;;;7.18;1.52;;;8.90;99.90;;;;;;6235081;22;20348;-95
2022/04/07 05:34:47;;;;;;;8.18;1.50;;;8.70;99.90;;;;;;6230966;22;20511;-94
2022/04/07 05:37:12;;;;;;;9.27;1.52;;;8.50;99.90;;;;;;6230280;22;20016;-93
2022/04/07 05:39:38;;;;;;;7.53;1.00;;;8.30;99.90;;;;;;6228957;22;20073;-93
2022/04/07 05:42:05;;;;;;;7.70;1.50;;;8.10;99.90;;;;;;6254708;22;20015;-91
2022/04/07 05:44:31;;;;;;;6.43;1.20;;;7.90;99.90;;;;;;6229255;22;20323;-95
2022/04/07 05:46:57;;;;;;;7.53;1.10;;;7.70;99.90;;;;;;6231397;22;20020;-93
2022/04/07 05:53:41;;;;;;;8.48;1.65;;;7.50;99.90;;;;;;6284989;22;20026;-95
2022/04/07 05:56:13;;;;;;;9.65;1.35;;;7.40;99.90;;;;;;6232708;22;20023;-93
2022/04/07 05:58:38;;;;;;;9.43;1.58;;;7.30;99.90;;;;;;6238332;22;20026;-95
2022/04/07 06:01:10;;;;;;;13.63;2.10;;;7.30;99.90;;;;;;6233429;22;20012;-94
2022/04/07 06:04:19;;;;;;;8.15;1.15;;;7.30;99.90;;;;;;6234123;22;20019;-93
2022/04/07 06:07:19;;;;;;;11.77;1.58;;;7.30;99.90;;;;;;6282338;22;20024;-92
2022/04/07 06:09:45;;;;;;;7.27;1.57;;;7.20;99.90;;;;;;6231452;22;20026;-92
2022/04/07 06:12:11;;;;;;;6.53;1.20;;;7.20;99.90;;;;;;6233606;22;20404;-93
2022/04/07 06:14:36;;;;;;;8.80;1.10;;;7.10;99.90;;;;;;6231396;22;20070;-90
2022/04/07 06:17:03;;;;;;;6.63;1.07;;;7.10;99.90;;;;;;6228256;22;20023;-92
2022/04/07 06:19:53;;;;;;;9.57;1.10;;;7.00;99.90;;;;;;6238660;22;20075;-93
2022/04/07 06:22:22;;;;;;;9.32;1.20;;;6.90;99.90;;;;;;6229989;22;20445;-94
2022/04/07 06:24:47;;;;;;;33.17;1.73;;;6.80;99.90;;;;;;6234995;22;20042;-92
2022/04/07 06:27:13;;;;;;;6.63;1.00;;;6.70;99.90;;;;;;6234504;22;20055;-92
2022/04/07 06:29:40;;;;;;;7.43;1.10;;;6.70;99.90;;;;;;6236647;22;20015;-93
2022/04/07 06:32:06;;;;;;;4.68;0.90;;;6.60;99.90;;;;;;6264297;22;20019;-89
2022/04/07 06:34:36;;;;;;;5.43;0.70;;;6.50;99.90;;;;;;6265699;22;20484;-92
2022/04/07 06:37:12;;;;;;;5.78;0.95;;;6.50;99.90;;;;;;6244366;22;19992;-89
2022/04/07 06:39:51;;;;;;;6.95;1.25;;;6.40;99.90;;;;;;6247729;22;20016;-88
2022/04/07 06:42:21;;;;;;;5.15;0.70;;;6.40;99.90;;;;;;6287946;22;20393;-96
2022/04/07 06:44:46;;;;;;;4.20;0.90;;;6.40;99.90;;;;;;6230254;22;20015;-94
2022/04/07 06:47:12;;;;;;;5.10;0.80;;;6.40;99.90;;;;;;6229567;22;20007;-95
2022/04/07 06:49:38;;;;;;;5.30;0.83;;;6.40;99.90;;;;;;6231058;22;20067;-93
2022/04/07 06:52:04;;;;;;;3.13;0.60;;;6.40;99.90;;;;;;6234289;22;20022;-96
2022/04/07 06:54:29;;;;;;;4.33;0.70;;;6.40;99.90;;;;;;6228743;22;20012;-95
2022/04/07 06:56:55;;;;;;;3.87;0.50;;;6.40;99.90;;;;;;6229550;22;20024;-94
2022/04/07 06:59:21;;;;;;;4.10;0.77;;;6.40;99.90;;;;;;6233478;22;20026;-92
2022/04/07 07:01:50;;;;;;;3.90;0.70;;;6.40;99.90;;;;;;6235068;22;20022;-91
2022/04/07 07:07:06;;;;;;;4.57;0.77;;;6.40;99.90;;;;;;6235541;23;20024;-94
2022/04/07 07:09:34;;;;;;;4.22;0.70;;;6.40;99.90;;;;;;6208676;23;20030;-88
2022/04/07 07:12:26;;;;;;;6.38;0.88;;;6.40;99.90;;;;;;6210039;23;20016;-91
2022/04/07 07:17:33;;;;;;;6.28;1.02;;;6.50;99.90;;;;;;6306875;22;20011;-89
2022/04/07 07:20:44;;;;;;;4.63;0.93;;;6.50;99.90;;;;;;6302901;22;20023;-88
2022/04/07 07:23:11;;;;;;;5.32;0.73;;;6.60;99.90;;;;;;6262853;22;20023;-94
2022/04/07 07:25:37;;;;;;;1.92;0.50;;;6.50;99.90;;;;;;6264943;22;20012;-92
2022/04/07 07:28:04;;;;;;;2.92;0.60;;;6.50;99.90;;;;;;6260847;22;20057;-94
2022/04/07 07:30:30;;;;;;;5.90;0.70;;;6.60;99.90;;;;;;6259453;22;20023;-93
2022/04/07 07:32:56;;;;;;;4.50;0.87;;;6.60;99.90;;;;;;6258269;22;20015;-92
2022/04/07 07:35:24;;;;;;;6.50;1.17;;;6.60;99.90;;;;;;6258615;22;20045;-95
2022/04/07 07:37:58;;;;;;;5.90;1.00;;;6.60;99.90;;;;;;6258833;22;20015;-95
2022/04/07 07:40:27;;;;;;;6.72;0.80;;;6.60;99.90;;;;;;6262842;22;19999;-92
2022/04/07 07:45:23;;;;;;;3.63;0.65;;;6.60;99.90;;;;;;6261546;22;20034;-91
2022/04/07 07:47:49;;;;;;;3.17;0.77;;;6.70;99.90;;;;;;6236046;23;20004;-90
2022/04/07 07:50:16;;;;;;;5.57;1.00;;;6.70;99.90;;;;;;6262663;23;20105;-88
2022/04/07 07:52:41;;;;;;;;;;;6.70;99.90;;;;;;6261665;23;20030;-94
2022/04/07 07:55:08;;;;;;;4.40;0.90;;;6.70;99.90;;;;;;6257131;23;19916;-94
2022/04/07 07:57:40;;;;;;;3.70;0.75;;;6.70;99.90;;;;;;6231125;23;20046;-95
2022/04/07 08:02:41;;;;;;;7.05;1.10;;;6.80;99.90;;;;;;6236039;23;20024;-90
2022/04/07 08:05:07;;;;;;;4.23;0.80;;;6.80;99.90;;;;;;6206873;23;20042;-93
2022/04/07 08:07:38;;;;;;;4.53;0.65;;;6.90;99.90;;;;;;6229840;23;20012;-95
2022/04/07 08:10:26;;;;;;;4.97;0.90;;;7.10;99.90;;;;;;6258431;23;20020;-87
2022/04/07 08:12:56;;;;;;;6.68;1.00;;;7.30;99.90;;;;;;6230963;23;20016;-93
2022/04/07 08:15:23;;;;;;;5.75;1.13;;;7.40;99.90;;;;;;6224092;23;20018;-96
2022/04/07 08:17:48;;;;;;;5.80;0.90;;;7.40;99.90;;;;;;6225482;23;20016;-95
2022/04/07 08:20:14;;;;;;;4.53;0.70;;;7.40;99.90;;;;;;6203631;23;20013;-93
2022/04/07 08:22:41;;;;;;;6.50;0.90;;;7.50;99.90;;;;;;6202383;23;20453;-94
2022/04/07 08:29:19;;;;;;;9.23;1.23;;;7.70;99.90;;;;;;6254524;23;20034;-89
2022/04/07 08:31:45;;;;;;;7.20;1.20;;;7.90;99.90;;;;;;6256599;23;20385;-91
2022/04/07 08:34:11;;;;;;;4.57;0.87;;;8.00;99.90;;;;;;6205040;23;20023;-90
2022/04/07 08:36:37;;;;;;;6.40;0.87;;;8.10;99.90;;;;;;6205031;23;20023;-94
2022/04/07 08:39:19;;;;;;;11.15;1.42;;;8.20;99.90;;;;;;6226619;23;20094;-92
2022/04/07 08:41:47;;;;;;;8.15;0.80;;;8.20;99.90;;;;;;6230281;23;20004;-95
2022/04/07 08:44:15;;;;;;;7.25;1.08;;;8.30;99.90;;;;;;6207518;23;20012;-89
2022/04/07 08:51:52;;;;;;;7.57;1.15;;;8.60;99.90;;;;;;6285692;22;20023;-87
2022/04/07 08:54:19;;;;;;;9.25;1.10;;;8.70;99.90;;;;;;6233736;22;20073;-87
2022/04/07 08:56:49;;;;;;;7.13;1.00;;;8.80;99.90;;;;;;6258640;22;20514;-91
2022/04/07 08:59:16;;;;;;;6.32;0.90;;;8.80;99.90;;;;;;6261538;22;20016;-91
2022/04/07 09:01:42;;;;;;;6.80;1.03;;;8.90;99.90;;;;;;6230176;22;20466;-88
2022/04/07 09:09:20;;;;;;;8.65;1.08;;;9.10;99.90;;;;;;6285658;22;20023;-91
2022/04/07 09:11:46;;;;;;;7.32;1.10;;;9.20;99.90;;;;;;6257782;22;20019;-90
2022/04/07 09:14:12;;;;;;;9.02;1.52;;;9.30;99.90;;;;;;6257545;22;20011;-90
2022/04/07 09:17:01;;;;;;;7.32;1.33;;;9.40;99.90;;;;;;6259582;22;20534;-95
2022/04/07 09:38:40;;;;;;;9.27;1.40;;;9.90;99.90;;;;;;6259913;22;20020;-95
2022/04/07 09:41:09;;;;;;;9.90;1.70;;;10.00;99.90;;;;;;6232694;22;20051;-90
2022/04/07 09:43:49;;;;;;;8.32;1.48;;;9.90;99.90;;;;;;6258886;22;20023;-89
2022/04/07 09:46:18;;;;;;;7.63;1.60;;;9.90;99.90;;;;;;6234833;22;20015;-88
2022/04/07 09:49:08;;;;;;;8.27;1.50;;;9.90;99.90;;;;;;6232829;22;20333;-91
2022/04/07 09:51:57;;;;;;;9.20;1.35;;;9.90;99.90;;;;;;6224972;22;20102;-88
2022/04/07 09:54:25;;;;;;;11.15;2.08;;;9.90;99.90;;;;;;6257230;22;20016;-93
2022/04/07 09:56:53;;;;;;;11.50;1.30;;;9.90;99.90;;;;;;6230181;22;20445;-96
2022/04/07 09:59:21;;;;;;;8.82;1.58;;;9.90;99.90;;;;;;6225216;22;20023;-92
2022/04/07 10:01:50;;;;;;;9.15;1.38;;;9.90;99.90;;;;;;6226312;22;20395;-92
2022/04/07 10:04:16;;;;;;;8.73;1.38;;;9.90;99.90;;;;;;6226151;22;20012;-91
2022/04/07 10:06:43;;;;;;;5.55;1.27;;;9.80;99.90;;;;;;6225807;22;20011;-94
2022/04/07 10:09:09;;;;;;;7.95;1.30;;;9.60;99.90;;;;;;6225496;22;20016;-94
2022/04/07 10:11:35;;;;;;;8.48;1.70;;;9.30;99.90;;;;;;6225597;22;20023;-92
2022/04/07 10:14:04;;;;;;;8.73;1.88;;;9.00;99.90;;;;;;6225498;22;20069;-94
2022/04/07 10:16:30;;;;;;;9.88;1.30;;;8.60;99.90;;;;;;6225286;22;20022;-95
2022/04/07 10:19:23;;;;;;;8.75;1.88;;;8.30;99.90;;;;;;6225697;22;20016;-92
2022/04/07 10:21:58;;;;;;;10.98;1.75;;;8.10;99.90;;;;;;6225527;22;20103;-92
2022/04/07 10:24:29;;;;;;;12.45;2.20;;;8.10;99.90;;;;;;6250689;22;20138;-92
2022/04/07 10:26:57;;;;;;;13.52;1.98;;;8.40;99.90;;;;;;6250792;22;20020;-93
2022/04/07 10:29:23;;;;;;;13.27;2.35;;;8.60;99.90;;;;;;6228319;22;20015;-94
2022/04/07 10:32:11;;;;;;;14.20;1.73;;;8.80;99.90;;;;;;6231333;22;20208;-91
2022/04/07 10:34:42;;;;;;;6.93;1.00;;;8.90;99.90;;;;;;6251993;22;20322;-91
2022/04/07 10:37:08;;;;;;;7.65;1.20;;;8.70;99.90;;;;;;6250881;22;20023;-91
2022/04/07 10:39:35;;;;;;;5.93;0.98;;;8.30;99.90;;;;;;6225407;22;20041;-92
2022/04/07 10:42:01;;;;;;;11.35;2.05;;;8.10;99.90;;;;;;6225285;22;20114;-91
2022/04/07 10:44:28;;;;;;;10.40;1.38;;;7.90;99.90;;;;;;6224745;22;20090;-93
2022/04/07 10:47:13;;;;;;;10.48;1.63;;;7.90;99.90;;;;;;6224958;22;20016;-93
2022/04/07 10:49:47;;;;;;;14.95;1.90;;;7.90;99.90;;;;;;6224946;22;20015;-91
2022/04/07 10:52:26;;;;;;;11.85;1.40;;;8.10;99.90;;;;;;6224810;22;20015;-92
2022/04/07 10:55:11;;;;;;;13.00;3.05;;;8.30;99.90;;;;;;6224620;22;20016;-92
2022/04/07 10:58:09;;;;;;;9.98;1.92;;;8.50;99.90;;;;;;6224917;22;20397;-93
2022/04/07 11:00:38;;;;;;;12.07;1.88;;;8.50;99.90;;;;;;6225221;22;20045;-91
2022/04/07 11:03:18;;;;;;;11.13;1.90;;;8.50;99.90;;;;;;6226222;22;20400;-95
2022/04/07 11:06:06;;;;;;;12.68;1.80;;;8.50;99.90;;;;;;6225299;22;20023;-92
2022/04/07 11:08:32;;;;;;;12.65;1.92;;;8.60;99.90;;;;;;6225264;22;20460;-92
2022/04/07 11:10:58;;;;;;;13.00;2.03;;;8.70;99.90;;;;;;6225699;22;20019;-91
2022/04/07 11:13:43;;;;;;;11.33;2.00;;;8.80;99.90;;;;;;6225404;22;20034;-93
2022/04/07 11:16:28;;;;;;;15.60;3.20;;;8.90;99.90;;;;;;6253652;22;20020;-94
2022/04/07 11:19:23;;;;;;;12.90;1.85;;;8.80;99.90;;;;;;6227379;22;20412;-93
2022/04/07 11:21:50;;;;;;;11.02;2.55;;;8.90;99.90;;;;;;6227759;22;20081;-93
2022/04/07 11:24:28;;;;;;;20.33;2.38;;;9.00;99.90;;;;;;6227777;22;20016;-92
2022/04/07 11:26:54;;;;;;;11.15;2.08;;;9.10;99.90;;;;;;6205091;22;20016;-94
2022/04/07 11:29:34;;;;;;;14.35;2.38;;;9.10;99.90;;;;;;6227106;22;20076;-92
2022/04/07 11:32:09;;;;;;;14.35;2.08;;;9.20;99.90;;;;;;6229629;22;20020;-93
2022/04/07 11:35:12;;;;;;;11.27;1.92;;;9.30;99.90;;;;;;6230094;22;20094;-95
2022/04/07 11:37:40;;;;;;;13.77;2.00;;;9.40;99.90;;;;;;6235347;22;20016;-92
2022/04/07 11:40:12;;;;;;;11.02;1.73;;;9.50;99.90;;;;;;6256237;22;20022;-93
2022/04/07 11:42:40;;;;;;;14.43;2.30;;;9.40;99.90;;;;;;6255145;22;20015;-92
2022/04/07 11:45:10;;;;;;;12.35;2.35;;;9.40;99.90;;;;;;6228908;22;20016;-93
2022/04/07 11:47:38;;;;;;;13.80;2.30;;;9.50;99.90;;;;;;6228491;22;20031;-96
2022/04/07 11:50:07;;;;;;;15.43;2.92;;;9.50;99.90;;;;;;6228861;22;20015;-95
2022/04/07 11:52:35;;;;;;;15.90;2.60;;;9.50;99.90;;;;;;6228285;22;20106;-92
2022/04/07 11:55:04;;;;;;;12.60;2.80;;;9.50;99.90;;;;;;6228035;22;20359;-95
2022/04/07 11:57:31;;;;;;;15.55;2.20;;;9.50;99.90;;;;;;6229467;22;20019;-94
2022/04/07 12:00:04;;;;;;;12.88;2.08;;;9.50;99.90;;;;;;6229944;22;20031;-94
2022/04/07 12:02:29;;;;;;;12.65;2.60;;;9.70;99.90;;;;;;6227930;22;20018;-94
2022/04/07 12:04:57;;;;;;;10.63;1.80;;;9.70;99.90;;;;;;6228003;22;20020;-92
2022/04/07 12:07:23;;;;;;;11.77;2.00;;;9.70;99.90;;;;;;6228628;22;20047;-93
2022/04/07 12:09:52;;;;;;;11.00;1.93;;;9.60;99.90;;;;;;6230563;22;20318;-91
2022/04/07 12:12:18;;;;;;;10.25;1.88;;;9.60;99.90;;;;;;6226490;22;20007;-91
2022/04/07 12:14:45;;;;;;;9.13;1.60;;;9.60;99.90;;;;;;6228396;22;20049;-91
2022/04/07 12:17:11;;;;;;;13.10;2.40;;;9.60;99.90;;;;;;6228185;22;20087;-89
2022/04/07 12:19:44;;;;;;;15.07;2.17;;;9.80;99.90;;;;;;6226960;22;20074;-92
2022/04/07 12:22:11;;;;;;;11.05;2.28;;;9.80;99.90;;;;;;6226916;22;20098;-93
2022/04/07 12:24:36;;;;;;;9.98;1.85;;;10.00;99.90;;;;;;6227588;22;20014;-92
2022/04/07 12:27:04;;;;;;;10.40;1.77;;;10.00;99.90;;;;;;6227927;22;20019;-89
2022/04/07 12:29:33;;;;;;;12.00;1.95;;;10.00;99.90;;;;;;6226004;22;20019;-92
2022/04/07 12:32:07;;;;;;;12.00;1.83;;;9.90;99.90;;;;;;6226329;22;20020;-92
2022/04/07 12:34:51;;;;;;;9.35;1.52;;;9.70;99.90;;;;;;6227870;22;20069;-93
2022/04/07 12:37:52;;;;;;;6.20;1.30;;;9.10;99.90;;;;;;6251655;22;20015;-89
2022/04/07 12:40:26;;;;;;;6.88;1.17;;;8.60;99.90;;;;;;6133607;22;20018;-94
2022/04/07 12:42:58;;;;;;;4.85;1.05;;;8.20;99.90;;;;;;6276805;22;20015;-94
2022/04/07 12:45:25;;;;;;;6.72;1.42;;;7.90;99.90;;;;;;6226290;22;20157;-91
2022/04/07 12:48:10;;;;;;;8.05;1.10;;;7.90;99.90;;;;;;6225977;22;20012;-91
2022/04/07 12:50:44;;;;;;;8.85;1.40;;;8.00;99.90;;;;;;6225793;22;20122;-93
2022/04/07 12:53:34;;;;;;;9.05;1.73;;;8.20;99.90;;;;;;6227257;22;20024;-91
2022/04/07 12:56:16;;;;;;;11.57;1.85;;;8.50;99.90;;;;;;6227323;22;20028;-92
2022/04/07 12:58:44;;;;;;;9.30;2.08;;;8.90;99.90;;;;;;6228041;22;20016;-94
2022/04/07 13:01:10;;;;;;;11.13;1.83;;;9.10;99.90;;;;;;6227973;22;20019;-93
2022/04/07 13:03:54;;;;;;;8.27;1.93;;;9.30;99.90;;;;;;6226778;22;20068;-93
2022/04/07 13:06:23;;;;;;;11.15;1.55;;;9.30;99.90;;;;;;6230078;22;20020;-95
2022/04/07 13:08:53;;;;;;;12.65;2.25;;;9.30;99.90;;;;;;6230773;22;20095;-94
2022/04/07 13:11:36;;;;;;;12.35;2.20;;;9.20;99.90;;;;;;6226201;22;20020;-94
2022/04/07 13:14:09;;;;;;;12.65;2.20;;;9.20;99.90;;;;;;6226658;22;20019;-95
2022/04/07 13:16:37;;;;;;;13.15;2.30;;;9.10;99.90;;;;;;6226418;22;20523;-95
2022/04/07 13:19:04;;;;;;;10.00;1.70;;;9.10;99.90;;;;;;6226693;22;20098;-94
2022/04/07 13:21:30;;;;;;;11.35;1.70;;;9.10;99.90;;;;;;6251953;22;20012;-94
2022/04/07 13:23:56;;;;;;;6.30;1.00;;;9.10;99.90;;;;;;6226733;22;20094;-92
2022/04/07 13:26:23;;;;;;;6.43;1.20;;;9.00;99.90;;;;;;6225438;22;20468;-91
2022/04/07 13:28:52;;;;;;;6.50;0.90;;;8.70;99.90;;;;;;6225879;22;20095;-93
2022/04/07 13:31:22;;;;;;;6.78;1.05;;;8.20;99.90;;;;;;6229449;22;20016;-94
2022/04/07 13:33:48;;;;;;;7.35;1.08;;;7.80;99.90;;;;;;6227937;22;20008;-92
2022/04/07 13:36:14;;;;;;;6.65;1.02;;;7.60;99.90;;;;;;6227435;22;20019;-92
2022/04/07 13:38:40;;;;;;;6.17;1.20;;;7.40;99.90;;;;;;6227337;22;20445;-94
2022/04/07 13:41:05;;;;;;;8.10;1.50;;;7.30;99.90;;;;;;6225938;22;20015;-93
2022/04/07 13:43:32;;;;;;;6.83;1.23;;;7.30;99.90;;;;;;6226631;22;20016;-95
2022/04/07 13:45:58;;;;;;;7.32;1.27;;;7.20;99.90;;;;;;6226564;22;20011;-91
2022/04/07 13:48:25;;;;;;;5.90;1.40;;;7.10;99.90;;;;;;6226929;22;20015;-93
2022/04/07 13:50:53;;;;;;;7.10;1.10;;;7.10;99.90;;;;;;6227152;22;20007;-93
2022/04/07 13:53:19;;;;;;;7.93;1.63;;;7.10;99.90;;;;;;6226305;22;20108;-93
2022/04/07 13:55:46;;;;;;;6.40;1.10;;;7.10;99.90;;;;;;6225984;22;20018;-93
2022/04/07 13:58:14;;;;;;;10.23;1.13;;;7.20;99.90;;;;;;6226132;22;20110;-94
2022/04/07 14:00:41;;;;;;;6.82;1.55;;;7.20;99.90;;;;;;6225496;22;20027;-95
2022/04/07 14:03:07;;;;;;;5.72;1.00;;;7.30;99.90;;;;;;6226749;22;20098;-94
2022/04/07 14:05:33;;;;;;;8.40;1.30;;;7.50;99.90;;;;;;6225701;22;20449;-93
2022/04/07 14:08:00;;;;;;;6.18;1.30;;;7.50;99.90;;;;;;6225720;22;20123;-94
2022/04/07 14:10:26;;;;;;;5.70;1.20;;;7.60;99.90;;;;;;6225031;22;20018;-93
2022/04/07 14:12:52;;;;;;;7.75;1.50;;;7.60;99.90;;;;;;6228054;22;20078;-94
2022/04/07 14:15:18;;;;;;;9.13;1.23;;;7.60;99.90;;;;;;6225601;22;20004;-93
2022/04/07 14:17:45;;;;;;;6.85;1.13;;;7.70;99.90;;;;;;6226104;22;20015;-95
2022/04/07 14:20:12;;;;;;;7.05;1.17;;;7.80;99.90;;;;;;6225737;22;20015;-92
2022/04/07 14:22:39;;;;;;;9.57;1.40;;;8.00;99.90;;;;;;6226016;22;20020;-93
2022/04/07 14:25:09;;;;;;;6.65;1.50;;;8.20;99.90;;;;;;6226666;22;20441;-95
2022/04/07 14:27:34;;;;;;;7.75;1.30;;;8.30;99.90;;;;;;6227736;22;20069;-93
2022/04/07 14:30:00;;;;;;;8.23;1.60;;;8.50;99.90;;;;;;6227559;22;20020;-91
2022/04/07 14:32:26;;;;;;;9.97;1.50;;;8.60;99.90;;;;;;6226667;22;20050;-91
2022/04/07 14:34:52;;;;;;;9.67;1.70;;;8.70;99.90;;;;;;6229277;22;20067;-91
2022/04/07 14:37:17;;;;;;;8.87;1.50;;;8.80;99.90;;;;;;6226035;22;20026;-93
2022/04/07 14:39:44;;;;;;;9.40;1.70;;;8.90;99.90;;;;;;6225215;22;20042;-93
2022/04/07 14:42:09;;;;;;;10.63;2.03;;;8.90;99.90;;;;;;6227100;22;20022;-93
2022/04/07 14:44:36;;;;;;;9.43;1.33;;;9.10;99.90;;;;;;6227438;22;20016;-94